createdAt,value
2022-10-05T00:01:15.886Z,12.80
2022-10-05T00:06:18.973Z,12.80
2022-10-05T00:11:22.060Z,12.70
2022-10-05T00:16:26.553Z,12.60
2022-10-05T00:21:30.320Z,12.50
2022-10-05T00:26:34.638Z,12.50
2022-10-05T00:31:39.242Z,12.50
2022-10-05T00:36:42.361Z,12.50
2022-10-05T00:42:01.792Z,12.40
2022-10-05T00:47:19.055Z,12.30
2022-10-05T00:52:33.088Z,12.10
2022-10-05T00:57:44.471Z,12.00
2022-10-05T01:02:58.208Z,11.90
2022-10-05T01:08:10.389Z,11.90
2022-10-05T01:13:24.484Z,11.80
2022-10-05T01:18:39.098Z,11.80
2022-10-05T01:24:19.331Z,11.70
2022-10-05T01:29:26.497Z,11.70
2022-10-05T01:34:37.342Z,11.70
2022-10-05T01:39:51.083Z,11.70
2022-10-05T01:45:04.822Z,11.70
2022-10-05T01:50:14.215Z,11.70
2022-10-05T01:55:24.019Z,11.70
2022-10-05T02:00:30.871Z,11.60
2022-10-05T02:05:40.369Z,11.60
2022-10-05T02:10:47.495Z,11.50
2022-10-05T02:15:58.085Z,11.50
2022-10-05T02:21:02.839Z,11.40
2022-10-05T02:26:07.917Z,11.30
2022-10-05T02:31:15.560Z,11.30
2022-10-05T02:36:24.966Z,11.20
2022-10-05T02:41:43.033Z,11.20
2022-10-05T02:46:57.244Z,11.20
2022-10-05T02:52:09.176Z,11.20
2022-10-05T02:57:24.525Z,11.10
2022-10-05T03:02:35.035Z,11.10
2022-10-05T03:07:44.265Z,11.10
2022-10-05T03:12:53.829Z,11.00
2022-10-05T03:18:07.098Z,11.00
2022-10-05T03:23:19.101Z,11.00
2022-10-05T03:28:28.236Z,11.00
2022-10-05T03:33:43.003Z,11.00
2022-10-05T03:38:51.216Z,11.00
2022-10-05T03:44:08.400Z,11.00
2022-10-05T03:49:20.598Z,11.00
2022-10-05T03:54:29.993Z,11.00
2022-10-05T03:59:39.363Z,11.00
2022-10-05T04:04:48.290Z,11.00
2022-10-05T04:09:54.313Z,11.00
2022-10-05T04:15:01.633Z,11.00
2022-10-05T04:20:18.505Z,11.00
2022-10-05T04:25:26.038Z,10.90
2022-10-05T04:30:30.828Z,10.90
2022-10-05T04:35:59.788Z,10.90
2022-10-05T04:41:15.971Z,10.90
2022-10-05T04:46:30.502Z,10.80
2022-10-05T04:51:46.576Z,10.80
2022-10-05T04:56:56.101Z,10.80
2022-10-05T05:02:06.815Z,10.80
2022-10-05T05:07:22.320Z,10.80
2022-10-05T05:12:32.895Z,10.80
2022-10-05T05:17:49.771Z,10.70
2022-10-05T05:23:02.076Z,10.60
2022-10-05T05:28:18.042Z,10.60
2022-10-05T05:33:24.258Z,10.60
2022-10-05T05:38:34.521Z,10.70
2022-10-05T05:43:53.069Z,10.70
2022-10-05T05:48:58.561Z,10.70
2022-10-05T05:54:14.761Z,10.70
2022-10-05T05:59:24.170Z,10.70
2022-10-05T06:04:34.398Z,10.70
2022-10-05T06:09:41.813Z,10.70
2022-10-05T06:14:49.740Z,10.70
2022-10-05T06:20:02.444Z,10.80
2022-10-05T06:25:24.349Z,10.80
2022-10-05T06:30:30.791Z,10.80
2022-10-05T06:35:48.393Z,10.80
2022-10-05T06:41:05.264Z,10.90
2022-10-05T06:46:14.392Z,10.90
2022-10-05T06:51:26.237Z,11.00
2022-10-05T06:56:37.505Z,11.10
2022-10-05T07:01:51.688Z,11.20
2022-10-05T16:19:49.019Z,23.70
2022-10-05T16:25:06.864Z,23.60
2022-10-05T16:30:16.545Z,23.50
2022-10-05T16:35:31.789Z,23.40
2022-10-05T16:40:42.677Z,23.40
2022-10-05T16:45:56.684Z,23.30
2022-10-05T16:51:13.633Z,23.20
2022-10-05T16:56:22.048Z,23.10
2022-10-05T17:01:42.124Z,23.00
2022-10-05T17:06:58.663Z,22.90
2022-10-05T17:12:19.163Z,22.80
2022-10-05T17:17:52.188Z,22.60
2022-10-05T17:23:05.100Z,22.40
2022-10-05T17:28:24.303Z,22.30
2022-10-05T17:33:29.351Z,22.20
2022-10-05T17:38:50.884Z,22.10
2022-10-05T17:44:26.298Z,22.00
2022-10-05T17:50:14.998Z,21.70
2022-10-05T17:55:30.233Z,21.60
2022-10-05T18:00:52.005Z,21.50
2022-10-05T18:06:33.279Z,21.30
2022-10-05T18:11:41.369Z,21.20
2022-10-05T18:17:01.123Z,21.10
2022-10-05T18:22:27.498Z,21.00
2022-10-05T18:28:00.877Z,20.90
2022-10-05T18:33:36.488Z,20.80
2022-10-05T18:38:53.068Z,20.70
2022-10-05T18:44:07.022Z,20.60
2022-10-05T18:49:23.238Z,20.50
2022-10-05T18:54:44.414Z,20.40
2022-10-05T18:59:55.686Z,20.10
2022-10-05T19:05:29.309Z,20.00
2022-10-05T19:10:42.727Z,19.90
2022-10-05T19:15:55.235Z,19.70
2022-10-05T19:21:07.533Z,19.70
2022-10-05T19:26:16.392Z,19.60
2022-10-05T19:31:31.283Z,19.50
2022-10-05T19:36:45.631Z,19.40
2022-10-05T19:42:02.059Z,19.30
2022-10-05T19:47:17.652Z,19.30
2022-10-05T19:52:28.408Z,19.20
2022-10-05T19:57:32.647Z,19.10
2022-10-05T20:02:41.256Z,19.00
2022-10-05T20:07:45.211Z,19.00
2022-10-05T20:12:52.550Z,18.80
2022-10-05T20:18:19.684Z,18.80
2022-10-05T20:23:24.997Z,18.70
2022-10-05T20:28:32.564Z,18.50
2022-10-05T20:33:39.080Z,18.50
2022-10-05T20:38:43.723Z,18.30
2022-10-05T20:43:47.238Z,18.30
2022-10-05T20:48:53.926Z,18.20
2022-10-05T20:53:57.243Z,18.10
2022-10-05T20:59:00.760Z,18.00
2022-10-05T21:04:06.919Z,17.90
2022-10-05T21:09:11.630Z,17.80
2022-10-05T21:14:15.885Z,17.70
2022-10-05T21:19:20.424Z,17.60
2022-10-05T21:24:23.612Z,17.50
2022-10-05T21:29:26.707Z,17.30
2022-10-05T21:34:31.647Z,17.20
2022-10-05T21:39:35.347Z,17.10
2022-10-05T21:44:38.432Z,17.10
2022-10-05T21:49:43.182Z,17.10
2022-10-05T21:54:46.345Z,17.00
2022-10-05T21:59:50.188Z,17.00
2022-10-05T22:04:54.803Z,16.80
2022-10-05T22:09:57.970Z,16.70
2022-10-05T22:15:01.052Z,16.60
2022-10-05T22:20:06.126Z,16.60
2022-10-05T22:25:09.712Z,16.50
2022-10-05T22:30:14.777Z,16.50
2022-10-05T22:35:19.277Z,16.40
2022-10-05T22:40:22.447Z,16.40
2022-10-05T22:45:30.337Z,16.30
2022-10-05T22:50:37.485Z,16.30
2022-10-05T22:55:40.662Z,16.20
2022-10-05T23:00:57.928Z,16.10
2022-10-05T23:06:05.200Z,16.00
2022-10-05T23:11:09.969Z,15.90
2022-10-05T23:16:15.163Z,15.80
2022-10-05T23:21:20.721Z,15.60
2022-10-05T23:26:25.557Z,15.50
2022-10-05T23:31:31.762Z,15.30
2022-10-05T23:36:36.277Z,15.40
2022-10-05T23:41:39.334Z,15.40
2022-10-05T23:46:42.406Z,15.40
2022-10-05T23:51:46.847Z,15.30
2022-10-05T23:56:49.969Z,15.30
